Simulator 2017-01-16T18:31:04+00:00

CR-12 (AATD) Simulator

Our FAA approved CR-12 simulator is the most effective simulator on the market. It’s sophisticated controls and “real-to-life” functionality provides perfect scenarios for instrument flight training and more.

When you train on our simulator you’ll save thousands of dollars! The FAA approval of the CR-12 means that students can log up to 50 hours of their simulator time towards flight training! So, instead of having to fly 250 hours in airplanes for you Commercial Pilot License, you can now train 50 hours in our simulator and only have to pay for 200 hours of flight training.

Stay instrument current and proficient! The CR-12 also gives us the ability to perform instrument currency training.

Current METAR

KOGD 230553Z AUTO 20009KT 10SM FEW070 OVC090 15/06 A2995 RMK AO2 SLP099 60000 T01500056 10194 20150 55004